• Join FlightAware (Why Join?)
  • Login
  • US Flag 
09:14PM EST


 

Airport Tracker/Info


-or-


 

Live Flight TrackerFlight Track Log ✈ N234GF ✈ 23-Jun-2013 ✈ KPLN - KPTK

Flight Track Log - Related Links

Times and Time Zones

All times are in EDT time to prevent confusion due to time zone crossing. See the N234GF flight status page for this flight to view local times or setup timezone preferences in your user account.

Time Position Orientation Groundspeed Altitude Reporting Facility
EDT Latitude Longitude Course Direction KTS MPH feet Rate Location/Type
02:14PM 45.4847 -84.8358 165° South 249 287 7,000  Level Minneapolis Center
02:15PM 45.4097 -84.8022 163° South 265 305 10,500 3,420 Climbing Minneapolis Center
02:16PM 45.3228 -84.7650 163° South 302 348 14,100 3,000 Climbing Minneapolis Center
02:17PM 45.2339 -84.7225 161° South 314 361 16,800 1,980 Climbing Minneapolis Center
02:18PM 45.1372 -84.6775 162° South 372 428 18,200 1,020 Climbing Minneapolis Center
02:19PM 45.0639 -84.5843 165° South  Level FlightAware Approximate
02:19PM 45.0228 -84.6256 162° South 402 463 19,000  Level Minneapolis Center
02:20PM 44.9108 -84.5742 162° South 426 490 19,000  Level Minneapolis Center
02:21PM 44.7931 -84.5308 165° South 409 471 19,000  Level Minneapolis Center
02:22PM 44.6872 -84.4833 162° South 397 457 19,000  Level Minneapolis Center
02:23PM 44.5786 -84.4403 164° South 401 461 19,000  Level Minneapolis Center
02:24PM 44.4511 -84.3931 165° South 426 490 19,000  Level Minneapolis Center
02:25PM 44.3392 -84.3481 164° South 426 490 19,000  Level Minneapolis Center
02:26PM 44.2164 -84.3014 165° South 426 490 19,000  Level Minneapolis Center
02:27PM 44.1083 -84.2600 165° South 414 476 19,000  Level Minneapolis Center
02:28PM 43.9906 -84.2086 163° South 414 476 19,000  Level Minneapolis Center
02:29PM 43.8922 -84.1636 162° South 401 461 19,000  Level Minneapolis Center
02:30PM 43.7850 -84.1147 162° South 402 463 19,000  Level Minneapolis Center
02:31PM 43.6753 -84.0728 165° South 406 467 19,000 -180 Level Minneapolis Center
02:33PM 43.5647 -84.0283 164° South 413 475 18,700 -1,260 Descending Minneapolis Center
02:34PM 43.4381 -83.9750 163° South 401 461 16,400 -2,220 Descending Minneapolis Center
02:35PM 43.3317 -83.9306 163° South 400 460 14,200 -2,220 Descending Minneapolis Center
02:35PM 43.2753 -83.9081 164° South 394 453 13,000 -2,160 Descending Cleveland Center
02:36PM 43.1742 -83.8686 164° South 389 448 11,000 -1,680 Descending Cleveland Center
02:37PM 43.0894 -83.8383 165° South 345 397 9,700 -1,380 Descending Cleveland Center
02:38PM 43.0153 -83.8061 162° South 295 339 8,300 -1,500 Descending Cleveland Center
02:39PM 42.9411 -83.7767 164° South 274 315 6,700 -1,440 Descending Cleveland Center
02:40PM 42.8939 -83.7572 163° South 255 293 5,900 -1,500 Descending Cleveland Center
02:41PM 42.8339 -83.7344 164° South 244 281 4,300 -900 Descending Cleveland Center
02:42PM 42.7575 -83.7081 166° South 256 295 4,100 -180 Descending Cleveland Center
02:43PM 42.7225 -83.6158 117° Southeast 273 314 4,000 -360 Descending Cleveland Center
02:44PM 42.7042 -83.5189 104° East 272 313 3,400 -660 Descending Cleveland Center
02:45PM 42.7044 -83.4283 90° East 226 260 2,700 -600 Descending Cleveland Center
02:46PM 42.7019 -83.3606 93° East 158 182 2,300 -540 Descending Cleveland Center
02:47PM 42.6661 -83.3675 188° South 140 161 1,700 -660 Descending Cleveland Center
02:49PM 42.6500 -83.4167 144° Southeast  Level FlightAware Approximate